Fredericia, Denmark
Current Conditions -  °F | °C
As of 4:50 PM on Saturday 25 Oct 2014 (Local Time) from EKBI Reporting Station
Few Clouds Few Clouds  
Wind Chill: 55°   Ceiling: Unl
Heat Index: 55°   Visibility: 6mi
Dew Point: 46°   Wind: 8mph
Humidity: 72%   Direction: 240°WSW
Pressure: 29.97"   Gusts: NA
Location:  55.57°N, 9.75°E
Report Text: EKBI 251450Z AUTO 24007KT 9999NDV FEW025/// 13/08 Q1015
Loading
Personal Weather Stations






























Interactive Weather Map
Tropical Storm Tracking
New forecast layout! Learn more

10-Day Weather Forecast

Advertisements
Track Severe Weather on mobile